sensor_id;sensor_type;location;lat;lon;timestamp;P1;durP1;ratioP1;P2;durP2;ratioP2
56319;SDS011;42226;42.382;23.748;2024-02-04T00:00:45;6.82;;;6.32;;
56319;SDS011;42226;42.382;23.748;2024-02-04T00:03:12;6.32;;;5.88;;
56319;SDS011;42226;42.382;23.748;2024-02-04T00:05:39;6.85;;;6.18;;
56319;SDS011;42226;42.382;23.748;2024-02-04T00:08:08;7.15;;;6.43;;
56319;SDS011;42226;42.382;23.748;2024-02-04T00:10:38;7.35;;;6.78;;
56319;SDS011;42226;42.382;23.748;2024-02-04T00:13:05;6.57;;;6.03;;
56319;SDS011;42226;42.382;23.748;2024-02-04T00:15:32;6.70;;;6.20;;
56319;SDS011;42226;42.382;23.748;2024-02-04T00:23:51;6.68;;;6.15;;
56319;SDS011;42226;42.382;23.748;2024-02-04T00:26:19;7.57;;;6.90;;
56319;SDS011;42226;42.382;23.748;2024-02-04T00:28:45;6.90;;;6.40;;
56319;SDS011;42226;42.382;23.748;2024-02-04T00:31:14;6.43;;;6.03;;
56319;SDS011;42226;42.382;23.748;2024-02-04T00:33:41;5.43;;;5.03;;
56319;SDS011;42226;42.382;23.748;2024-02-04T00:36:09;6.65;;;6.15;;
56319;SDS011;42226;42.382;23.748;2024-02-04T00:38:36;7.35;;;6.75;;
56319;SDS011;42226;42.382;23.748;2024-02-04T00:41:03;7.25;;;6.65;;
56319;SDS011;42226;42.382;23.748;2024-02-04T00:43:30;7.05;;;6.45;;
56319;SDS011;42226;42.382;23.748;2024-02-04T00:45:58;6.80;;;6.30;;
56319;SDS011;42226;42.382;23.748;2024-02-04T00:48:27;8.65;;;7.80;;
56319;SDS011;42226;42.382;23.748;2024-02-04T00:50:54;6.80;;;6.10;;
56319;SDS011;42226;42.382;23.748;2024-02-04T00:53:22;7.03;;;6.53;;
56319;SDS011;42226;42.382;23.748;2024-02-04T00:55:48;6.63;;;6.03;;
56319;SDS011;42226;42.382;23.748;2024-02-04T00:58:16;7.05;;;6.45;;
56319;SDS011;42226;42.382;23.748;2024-02-04T01:00:43;6.85;;;6.28;;
56319;SDS011;42226;42.382;23.748;2024-02-04T01:03:11;7.65;;;6.35;;
56319;SDS011;42226;42.382;23.748;2024-02-04T01:05:37;6.97;;;6.47;;
56319;SDS011;42226;42.382;23.748;2024-02-04T01:08:05;7.28;;;6.60;;
56319;SDS011;42226;42.382;23.748;2024-02-04T01:10:33;6.88;;;6.38;;
56319;SDS011;42226;42.382;23.748;2024-02-04T01:13:00;6.97;;;6.38;;
56319;SDS011;42226;42.382;23.748;2024-02-04T01:15:28;7.32;;;6.72;;
56319;SDS011;42226;42.382;23.748;2024-02-04T01:17:55;7.05;;;6.10;;
56319;SDS011;42226;42.382;23.748;2024-02-04T01:20:23;7.53;;;6.90;;
56319;SDS011;42226;42.382;23.748;2024-02-04T01:22:49;7.10;;;6.60;;
56319;SDS011;42226;42.382;23.748;2024-02-04T01:25:17;7.45;;;6.85;;
56319;SDS011;42226;42.382;23.748;2024-02-04T01:27:44;7.10;;;6.47;;
56319;SDS011;42226;42.382;23.748;2024-02-04T01:30:12;7.25;;;6.53;;
56319;SDS011;42226;42.382;23.748;2024-02-04T01:32:39;7.18;;;6.63;;
56319;SDS011;42226;42.382;23.748;2024-02-04T01:35:08;7.35;;;6.82;;
56319;SDS011;42226;42.382;23.748;2024-02-04T01:37:35;7.78;;;7.00;;
56319;SDS011;42226;42.382;23.748;2024-02-04T01:40:03;7.32;;;6.57;;
56319;SDS011;42226;42.382;23.748;2024-02-04T01:42:32;7.47;;;6.93;;
56319;SDS011;42226;42.382;23.748;2024-02-04T01:44:58;7.32;;;6.68;;
56319;SDS011;42226;42.382;23.748;2024-02-04T01:47:28;7.35;;;6.85;;
56319;SDS011;42226;42.382;23.748;2024-02-04T01:49:54;8.38;;;7.03;;
56319;SDS011;42226;42.382;23.748;2024-02-04T01:52:22;7.60;;;7.03;;
56319;SDS011;42226;42.382;23.748;2024-02-04T01:54:49;6.45;;;5.95;;
56319;SDS011;42226;42.382;23.748;2024-02-04T01:57:18;7.07;;;6.43;;
56319;SDS011;42226;42.382;23.748;2024-02-04T01:59:47;6.50;;;6.00;;
56319;SDS011;42226;42.382;23.748;2024-02-04T02:02:15;7.65;;;7.03;;
56319;SDS011;42226;42.382;23.748;2024-02-04T02:04:44;8.02;;;7.38;;
56319;SDS011;42226;42.382;23.748;2024-02-04T02:07:14;7.78;;;6.97;;
56319;SDS011;42226;42.382;23.748;2024-02-04T02:09:42;7.65;;;6.88;;
56319;SDS011;42226;42.382;23.748;2024-02-04T02:12:32;7.65;;;7.05;;
56319;SDS011;42226;42.382;23.748;2024-02-04T02:15:09;8.20;;;7.40;;
56319;SDS011;42226;42.382;23.748;2024-02-04T02:17:45;7.15;;;6.45;;
56319;SDS011;42226;42.382;23.748;2024-02-04T02:20:27;6.82;;;6.32;;
56319;SDS011;42226;42.382;23.748;2024-02-04T02:23:21;6.97;;;6.38;;
56319;SDS011;42226;42.382;23.748;2024-02-04T02:26:02;6.78;;;6.18;;
56319;SDS011;42226;42.382;23.748;2024-02-04T02:28:31;6.65;;;6.15;;
56319;SDS011;42226;42.382;23.748;2024-02-04T02:30:57;6.45;;;5.95;;
56319;SDS011;42226;42.382;23.748;2024-02-04T02:33:25;7.20;;;6.63;;
56319;SDS011;42226;42.382;23.748;2024-02-04T02:35:53;7.20;;;6.50;;
56319;SDS011;42226;42.382;23.748;2024-02-04T02:38:32;7.10;;;6.50;;
56319;SDS011;42226;42.382;23.748;2024-02-04T02:41:06;6.80;;;6.30;;
56319;SDS011;42226;42.382;23.748;2024-02-04T02:43:37;7.82;;;7.20;;
56319;SDS011;42226;42.382;23.748;2024-02-04T02:46:07;7.13;;;6.63;;
56319;SDS011;42226;42.382;23.748;2024-02-04T02:48:35;7.00;;;6.50;;
56319;SDS011;42226;42.382;23.748;2024-02-04T02:51:01;6.60;;;6.03;;
56319;SDS011;42226;42.382;23.748;2024-02-04T02:53:30;6.43;;;5.93;;
56319;SDS011;42226;42.382;23.748;2024-02-04T02:55:57;7.28;;;6.78;;
56319;SDS011;42226;42.382;23.748;2024-02-04T02:58:25;7.20;;;6.47;;
56319;SDS011;42226;42.382;23.748;2024-02-04T03:00:52;6.97;;;6.45;;
56319;SDS011;42226;42.382;23.748;2024-02-04T03:03:20;6.57;;;5.75;;
56319;SDS011;42226;42.382;23.748;2024-02-04T03:05:46;5.78;;;5.38;;
56319;SDS011;42226;42.382;23.748;2024-02-04T03:08:14;6.60;;;6.10;;
56319;SDS011;42226;42.382;23.748;2024-02-04T03:10:42;6.47;;;5.97;;
56319;SDS011;42226;42.382;23.748;2024-02-04T03:13:08;6.47;;;6.07;;
56319;SDS011;42226;42.382;23.748;2024-02-04T03:15:35;6.63;;;6.13;;
56319;SDS011;42226;42.382;23.748;2024-02-04T03:18:02;6.55;;;6.15;;
56319;SDS011;42226;42.382;23.748;2024-02-04T03:20:30;6.38;;;5.97;;
56319;SDS011;42226;42.382;23.748;2024-02-04T03:22:57;6.88;;;6.32;;
56319;SDS011;42226;42.382;23.748;2024-02-04T03:25:24;7.70;;;6.18;;
56319;SDS011;42226;42.382;23.748;2024-02-04T03:27:53;6.80;;;6.30;;
56319;SDS011;42226;42.382;23.748;2024-02-04T03:30:21;7.03;;;6.47;;
56319;SDS011;42226;42.382;23.748;2024-02-04T03:32:48;6.28;;;5.78;;
56319;SDS011;42226;42.382;23.748;2024-02-04T03:35:15;6.55;;;6.05;;
56319;SDS011;42226;42.382;23.748;2024-02-04T03:37:42;7.13;;;6.60;;
56319;SDS011;42226;42.382;23.748;2024-02-04T03:40:09;6.50;;;6.00;;
56319;SDS011;42226;42.382;23.748;2024-02-04T03:42:38;6.72;;;6.20;;
56319;SDS011;42226;42.382;23.748;2024-02-04T03:45:05;6.25;;;5.85;;
56319;SDS011;42226;42.382;23.748;2024-02-04T03:47:34;6.15;;;5.75;;
56319;SDS011;42226;42.382;23.748;2024-02-04T03:50:03;6.10;;;5.70;;
56319;SDS011;42226;42.382;23.748;2024-02-04T03:52:31;6.13;;;5.63;;
56319;SDS011;42226;42.382;23.748;2024-02-04T03:54:59;6.68;;;6.13;;
56319;SDS011;42226;42.382;23.748;2024-02-04T03:57:27;6.18;;;5.68;;
56319;SDS011;42226;42.382;23.748;2024-02-04T03:59:54;5.78;;;5.38;;
56319;SDS011;42226;42.382;23.748;2024-02-04T04:02:21;6.80;;;6.30;;
56319;SDS011;42226;42.382;23.748;2024-02-04T04:04:49;5.55;;;5.20;;
56319;SDS011;42226;42.382;23.748;2024-02-04T04:07:16;6.70;;;6.25;;
56319;SDS011;42226;42.382;23.748;2024-02-04T04:09:43;6.07;;;5.60;;
56319;SDS011;42226;42.382;23.748;2024-02-04T04:12:10;6.60;;;6.10;;
56319;SDS011;42226;42.382;23.748;2024-02-04T04:14:38;6.60;;;6.18;;
56319;SDS011;42226;42.382;23.748;2024-02-04T04:17:05;5.93;;;5.53;;
56319;SDS011;42226;42.382;23.748;2024-02-04T04:19:32;5.85;;;5.50;;
56319;SDS011;42226;42.382;23.748;2024-02-04T04:22:02;5.85;;;5.45;;
56319;SDS011;42226;42.382;23.748;2024-02-04T04:24:30;5.90;;;5.50;;
56319;SDS011;42226;42.382;23.748;2024-02-04T04:26:57;5.78;;;5.38;;
56319;SDS011;42226;42.382;23.748;2024-02-04T04:29:24;5.68;;;5.15;;
56319;SDS011;42226;42.382;23.748;2024-02-04T04:31:54;5.80;;;5.50;;
56319;SDS011;42226;42.382;23.748;2024-02-04T04:34:20;6.15;;;5.57;;
56319;SDS011;42226;42.382;23.748;2024-02-04T04:36:48;6.28;;;5.88;;
56319;SDS011;42226;42.382;23.748;2024-02-04T04:39:15;5.93;;;5.53;;
56319;SDS011;42226;42.382;23.748;2024-02-04T04:41:43;5.90;;;5.50;;
56319;SDS011;42226;42.382;23.748;2024-02-04T04:44:10;5.50;;;5.15;;
56319;SDS011;42226;42.382;23.748;2024-02-04T04:46:38;5.85;;;5.40;;
56319;SDS011;42226;42.382;23.748;2024-02-04T04:51:54;5.25;;;4.95;;
56319;SDS011;42226;42.382;23.748;2024-02-04T04:54:21;5.60;;;5.20;;
56319;SDS011;42226;42.382;23.748;2024-02-04T04:56:48;6.22;;;5.82;;
56319;SDS011;42226;42.382;23.748;2024-02-04T04:59:16;5.43;;;5.13;;
56319;SDS011;42226;42.382;23.748;2024-02-04T05:01:48;5.85;;;5.55;;
56319;SDS011;42226;42.382;23.748;2024-02-04T05:04:15;5.47;;;5.18;;
56319;SDS011;42226;42.382;23.748;2024-02-04T05:06:49;5.70;;;5.40;;
56319;SDS011;42226;42.382;23.748;2024-02-04T05:09:16;5.63;;;5.22;;
56319;SDS011;42226;42.382;23.748;2024-02-04T05:11:58;5.80;;;5.40;;
56319;SDS011;42226;42.382;23.748;2024-02-04T05:14:25;6.15;;;5.75;;
56319;SDS011;42226;42.382;23.748;2024-02-04T05:16:53;5.88;;;5.57;;
56319;SDS011;42226;42.382;23.748;2024-02-04T05:19:20;6.03;;;5.53;;
56319;SDS011;42226;42.382;23.748;2024-02-04T05:21:47;5.38;;;5.07;;
56319;SDS011;42226;42.382;23.748;2024-02-04T05:24:14;5.35;;;5.03;;
56319;SDS011;42226;42.382;23.748;2024-02-04T05:26:41;5.25;;;4.95;;
56319;SDS011;42226;42.382;23.748;2024-02-04T05:29:09;5.18;;;4.88;;
56319;SDS011;42226;42.382;23.748;2024-02-04T05:31:44;5.65;;;5.25;;
56319;SDS011;42226;42.382;23.748;2024-02-04T05:34:11;5.68;;;5.38;;
56319;SDS011;42226;42.382;23.748;2024-02-04T05:36:38;5.63;;;5.32;;
56319;SDS011;42226;42.382;23.748;2024-02-04T05:39:14;5.80;;;5.30;;
56319;SDS011;42226;42.382;23.748;2024-02-04T05:41:43;5.22;;;4.90;;
56319;SDS011;42226;42.382;23.748;2024-02-04T05:44:10;6.03;;;5.63;;
56319;SDS011;42226;42.382;23.748;2024-02-04T05:46:38;5.97;;;5.53;;
56319;SDS011;42226;42.382;23.748;2024-02-04T05:49:05;6.70;;;6.20;;
56319;SDS011;42226;42.382;23.748;2024-02-04T05:51:32;6.50;;;6.10;;
56319;SDS011;42226;42.382;23.748;2024-02-04T05:54:08;5.78;;;5.32;;
56319;SDS011;42226;42.382;23.748;2024-02-04T05:56:36;5.22;;;4.82;;
56319;SDS011;42226;42.382;23.748;2024-02-04T05:59:05;6.25;;;5.85;;
56319;SDS011;42226;42.382;23.748;2024-02-04T06:01:31;6.10;;;5.70;;
56319;SDS011;42226;42.382;23.748;2024-02-04T06:04:00;5.57;;;5.28;;
56319;SDS011;42226;42.382;23.748;2024-02-04T06:06:28;5.65;;;5.28;;
56319;SDS011;42226;42.382;23.748;2024-02-04T06:08:56;5.60;;;5.30;;
56319;SDS011;42226;42.382;23.748;2024-02-04T06:11:23;6.00;;;5.63;;
56319;SDS011;42226;42.382;23.748;2024-02-04T06:13:50;5.28;;;4.88;;
56319;SDS011;42226;42.382;23.748;2024-02-04T06:16:18;5.40;;;5.10;;
56319;SDS011;42226;42.382;23.748;2024-02-04T06:18:45;5.70;;;5.40;;
56319;SDS011;42226;42.382;23.748;2024-02-04T06:21:14;5.05;;;4.75;;
56319;SDS011;42226;42.382;23.748;2024-02-04T06:23:42;5.70;;;5.20;;
56319;SDS011;42226;42.382;23.748;2024-02-04T06:26:10;5.78;;;5.47;;
56319;SDS011;42226;42.382;23.748;2024-02-04T06:28:37;5.85;;;5.47;;
56319;SDS011;42226;42.382;23.748;2024-02-04T06:31:08;5.38;;;5.07;;
56319;SDS011;42226;42.382;23.748;2024-02-04T06:33:36;4.95;;;4.65;;
56319;SDS011;42226;42.382;23.748;2024-02-04T06:36:08;5.18;;;4.88;;
56319;SDS011;42226;42.382;23.748;2024-02-04T06:38:35;5.28;;;4.97;;
56319;SDS011;42226;42.382;23.748;2024-02-04T06:41:03;5.68;;;5.38;;
56319;SDS011;42226;42.382;23.748;2024-02-04T06:43:29;5.20;;;4.90;;
56319;SDS011;42226;42.382;23.748;2024-02-04T06:45:57;5.38;;;5.07;;
56319;SDS011;42226;42.382;23.748;2024-02-04T06:48:25;5.18;;;4.88;;
56319;SDS011;42226;42.382;23.748;2024-02-04T06:50:52;5.70;;;5.30;;
56319;SDS011;42226;42.382;23.748;2024-02-04T06:53:20;5.65;;;5.25;;
56319;SDS011;42226;42.382;23.748;2024-02-04T06:55:47;5.45;;;5.15;;
56319;SDS011;42226;42.382;23.748;2024-02-04T06:58:15;5.82;;;5.43;;
56319;SDS011;42226;42.382;23.748;2024-02-04T07:00:42;4.95;;;4.70;;
56319;SDS011;42226;42.382;23.748;2024-02-04T07:03:09;5.20;;;4.80;;
56319;SDS011;42226;42.382;23.748;2024-02-04T07:05:37;5.60;;;5.22;;
56319;SDS011;42226;42.382;23.748;2024-02-04T07:08:04;5.28;;;4.97;;
56319;SDS011;42226;42.382;23.748;2024-02-04T07:10:31;5.07;;;4.78;;
56319;SDS011;42226;42.382;23.748;2024-02-04T07:13:00;5.53;;;5.03;;
56319;SDS011;42226;42.382;23.748;2024-02-04T07:15:29;4.70;;;4.40;;
56319;SDS011;42226;42.382;23.748;2024-02-04T07:21:37;4.95;;;4.65;;
56319;SDS011;42226;42.382;23.748;2024-02-04T07:24:04;5.10;;;4.80;;
56319;SDS011;42226;42.382;23.748;2024-02-04T07:26:31;5.18;;;4.82;;
56319;SDS011;42226;42.382;23.748;2024-02-04T07:28:59;4.90;;;4.70;;
56319;SDS011;42226;42.382;23.748;2024-02-04T07:31:27;4.90;;;4.60;;
56319;SDS011;42226;42.382;23.748;2024-02-04T07:33:54;5.07;;;4.78;;
56319;SDS011;42226;42.382;23.748;2024-02-04T07:36:21;4.65;;;4.25;;
56319;SDS011;42226;42.382;23.748;2024-02-04T07:38:48;5.30;;;4.95;;
56319;SDS011;42226;42.382;23.748;2024-02-04T07:41:16;4.97;;;4.60;;
56319;SDS011;42226;42.382;23.748;2024-02-04T07:43:42;5.00;;;4.70;;
56319;SDS011;42226;42.382;23.748;2024-02-04T07:46:10;5.20;;;4.68;;
56319;SDS011;42226;42.382;23.748;2024-02-04T07:48:37;4.70;;;4.40;;
56319;SDS011;42226;42.382;23.748;2024-02-04T07:51:05;4.85;;;4.55;;
56319;SDS011;42226;42.382;23.748;2024-02-04T07:53:34;4.82;;;4.55;;
56319;SDS011;42226;42.382;23.748;2024-02-04T07:56:02;5.15;;;4.85;;
56319;SDS011;42226;42.382;23.748;2024-02-04T07:58:31;5.05;;;4.70;;
56319;SDS011;42226;42.382;23.748;2024-02-04T08:01:11;4.72;;;4.43;;
56319;SDS011;42226;42.382;23.748;2024-02-04T08:03:39;5.10;;;4.80;;
56319;SDS011;42226;42.382;23.748;2024-02-04T08:06:06;4.63;;;4.32;;
56319;SDS011;42226;42.382;23.748;2024-02-04T08:08:33;4.95;;;4.55;;
56319;SDS011;42226;42.382;23.748;2024-02-04T08:11:00;4.80;;;4.50;;
56319;SDS011;42226;42.382;23.748;2024-02-04T08:13:36;5.03;;;4.72;;
56319;SDS011;42226;42.382;23.748;2024-02-04T08:16:07;4.47;;;4.28;;
56319;SDS011;42226;42.382;23.748;2024-02-04T08:21:43;4.57;;;4.28;;
56319;SDS011;42226;42.382;23.748;2024-02-04T08:24:09;5.15;;;4.85;;
56319;SDS011;42226;42.382;23.748;2024-02-04T08:26:37;5.32;;;4.93;;
56319;SDS011;42226;42.382;23.748;2024-02-04T08:32:45;4.90;;;4.60;;
56319;SDS011;42226;42.382;23.748;2024-02-04T08:35:13;5.00;;;4.70;;
56319;SDS011;42226;42.382;23.748;2024-02-04T08:37:41;5.00;;;4.70;;
56319;SDS011;42226;42.382;23.748;2024-02-04T08:40:08;4.75;;;4.35;;
56319;SDS011;42226;42.382;23.748;2024-02-04T08:42:36;4.88;;;4.57;;
56319;SDS011;42226;42.382;23.748;2024-02-04T08:45:04;4.95;;;4.65;;
56319;SDS011;42226;42.382;23.748;2024-02-04T08:47:32;4.80;;;4.50;;
56319;SDS011;42226;42.382;23.748;2024-02-04T08:49:59;4.60;;;4.30;;
56319;SDS011;42226;42.382;23.748;2024-02-04T08:52:26;4.45;;;4.25;;
56319;SDS011;42226;42.382;23.748;2024-02-04T08:54:53;4.57;;;4.30;;
56319;SDS011;42226;42.382;23.748;2024-02-04T08:57:21;4.72;;;4.43;;
56319;SDS011;42226;42.382;23.748;2024-02-04T08:59:48;4.40;;;4.15;;
56319;SDS011;42226;42.382;23.748;2024-02-04T09:02:15;4.88;;;4.57;;
56319;SDS011;42226;42.382;23.748;2024-02-04T09:04:43;4.53;;;4.30;;
56319;SDS011;42226;42.382;23.748;2024-02-04T09:10:51;4.63;;;4.32;;
56319;SDS011;42226;42.382;23.748;2024-02-04T09:17:01;4.82;;;4.50;;
56319;SDS011;42226;42.382;23.748;2024-02-04T09:19:32;4.50;;;4.30;;
56319;SDS011;42226;42.382;23.748;2024-02-04T09:22:00;4.57;;;4.28;;
56319;SDS011;42226;42.382;23.748;2024-02-04T09:24:28;4.43;;;4.22;;
56319;SDS011;42226;42.382;23.748;2024-02-04T09:26:55;4.63;;;4.32;;
56319;SDS011;42226;42.382;23.748;2024-02-04T09:32:40;4.30;;;4.10;;
56319;SDS011;42226;42.382;23.748;2024-02-04T09:35:07;4.60;;;4.40;;
56319;SDS011;42226;42.382;23.748;2024-02-04T09:37:36;4.72;;;4.43;;
56319;SDS011;42226;42.382;23.748;2024-02-04T09:40:03;4.55;;;4.22;;
56319;SDS011;42226;42.382;23.748;2024-02-04T09:42:31;4.53;;;4.22;;
56319;SDS011;42226;42.382;23.748;2024-02-04T09:44:57;4.50;;;4.30;;
56319;SDS011;42226;42.382;23.748;2024-02-04T09:47:24;4.72;;;4.43;;
56319;SDS011;42226;42.382;23.748;2024-02-04T09:49:53;4.45;;;4.25;;
56319;SDS011;42226;42.382;23.748;2024-02-04T09:52:24;4.72;;;4.43;;
56319;SDS011;42226;42.382;23.748;2024-02-04T09:57:56;4.30;;;4.10;;
56319;SDS011;42226;42.382;23.748;2024-02-04T10:00:24;4.30;;;4.10;;
56319;SDS011;42226;42.382;23.748;2024-02-04T10:02:55;4.30;;;4.10;;
56319;SDS011;42226;42.382;23.748;2024-02-04T10:05:24;4.13;;;3.92;;
56319;SDS011;42226;42.382;23.748;2024-02-04T10:07:50;4.38;;;4.15;;
56319;SDS011;42226;42.382;23.748;2024-02-04T10:10:19;5.05;;;4.75;;
56319;SDS011;42226;42.382;23.748;2024-02-04T10:12:46;4.57;;;4.22;;
56319;SDS011;42226;42.382;23.748;2024-02-04T10:15:13;4.63;;;4.32;;
56319;SDS011;42226;42.382;23.748;2024-02-04T10:17:45;4.22;;;4.03;;
56319;SDS011;42226;42.382;23.748;2024-02-04T10:20:12;4.20;;;4.00;;
56319;SDS011;42226;42.382;23.748;2024-02-04T10:22:39;4.50;;;4.20;;
56319;SDS011;42226;42.382;23.748;2024-02-04T10:25:07;3.92;;;3.72;;
56319;SDS011;42226;42.382;23.748;2024-02-04T10:27:38;4.72;;;4.43;;
56319;SDS011;42226;42.382;23.748;2024-02-04T10:30:06;4.70;;;4.30;;
56319;SDS011;42226;42.382;23.748;2024-02-04T10:32:35;4.50;;;4.30;;
56319;SDS011;42226;42.382;23.748;2024-02-04T10:38:08;4.25;;;3.95;;
56319;SDS011;42226;42.382;23.748;2024-02-04T10:43:32;4.68;;;4.38;;
56319;SDS011;42226;42.382;23.748;2024-02-04T10:46:01;4.70;;;4.40;;
56319;SDS011;42226;42.382;23.748;2024-02-04T10:48:57;4.55;;;4.25;;
56319;SDS011;42226;42.382;23.748;2024-02-04T10:51:28;4.70;;;4.40;;
56319;SDS011;42226;42.382;23.748;2024-02-04T10:54:01;4.63;;;4.32;;
56319;SDS011;42226;42.382;23.748;2024-02-04T10:56:32;4.65;;;4.35;;
56319;SDS011;42226;42.382;23.748;2024-02-04T10:59:09;4.90;;;4.60;;
56319;SDS011;42226;42.382;23.748;2024-02-04T11:01:44;4.45;;;4.15;;
56319;SDS011;42226;42.382;23.748;2024-02-04T11:04:16;4.82;;;4.20;;
56319;SDS011;42226;42.382;23.748;2024-02-04T11:06:44;4.55;;;4.30;;
56319;SDS011;42226;42.382;23.748;2024-02-04T11:09:12;4.60;;;4.20;;
56319;SDS011;42226;42.382;23.748;2024-02-04T11:11:40;4.22;;;4.00;;
56319;SDS011;42226;42.382;23.748;2024-02-04T11:14:11;4.80;;;4.50;;
56319;SDS011;42226;42.382;23.748;2024-02-04T11:30:44;5.03;;;4.60;;
56319;SDS011;42226;42.382;23.748;2024-02-04T11:33:12;5.30;;;4.80;;
56319;SDS011;42226;42.382;23.748;2024-02-04T11:35:45;5.10;;;4.70;;
56319;SDS011;42226;42.382;23.748;2024-02-04T11:38:16;5.10;;;4.70;;
56319;SDS011;42226;42.382;23.748;2024-02-04T11:40:45;5.20;;;4.80;;
56319;SDS011;42226;42.382;23.748;2024-02-04T11:43:14;6.03;;;5.13;;
56319;SDS011;42226;42.382;23.748;2024-02-04T11:45:42;5.65;;;5.15;;
56319;SDS011;42226;42.382;23.748;2024-02-04T11:48:11;6.28;;;4.70;;
56319;SDS011;42226;42.382;23.748;2024-02-04T11:50:41;5.40;;;5.10;;
56319;SDS011;42226;42.382;23.748;2024-02-04T11:53:10;5.50;;;5.00;;
56319;SDS011;42226;42.382;23.748;2024-02-04T11:55:40;5.50;;;5.10;;
56319;SDS011;42226;42.382;23.748;2024-02-04T11:58:10;5.40;;;5.00;;
56319;SDS011;42226;42.382;23.748;2024-02-04T12:07:14;5.40;;;5.00;;
56319;SDS011;42226;42.382;23.748;2024-02-04T12:09:47;5.60;;;5.10;;
56319;SDS011;42226;42.382;23.748;2024-02-04T12:12:15;4.80;;;4.50;;
56319;SDS011;42226;42.382;23.748;2024-02-04T12:14:42;4.50;;;4.30;;
56319;SDS011;42226;42.382;23.748;2024-02-04T12:17:12;4.68;;;4.28;;
56319;SDS011;42226;42.382;23.748;2024-02-04T12:19:40;4.00;;;3.80;;
56319;SDS011;42226;42.382;23.748;2024-02-04T12:22:08;7.30;;;4.57;;
56319;SDS011;42226;42.382;23.748;2024-02-04T12:24:39;4.65;;;4.35;;
56319;SDS011;42226;42.382;23.748;2024-02-04T12:27:06;5.03;;;4.70;;
56319;SDS011;42226;42.382;23.748;2024-02-04T12:29:33;4.97;;;4.68;;
56319;SDS011;42226;42.382;23.748;2024-02-04T12:32:01;4.88;;;4.50;;
56319;SDS011;42226;42.382;23.748;2024-02-04T12:34:29;5.00;;;4.70;;
56319;SDS011;42226;42.382;23.748;2024-02-04T12:36:59;5.25;;;4.95;;
56319;SDS011;42226;42.382;23.748;2024-02-04T12:39:26;4.72;;;4.43;;
56319;SDS011;42226;42.382;23.748;2024-02-04T12:41:55;4.60;;;4.30;;
56319;SDS011;42226;42.382;23.748;2024-02-04T12:44:22;4.55;;;4.25;;
56319;SDS011;42226;42.382;23.748;2024-02-04T12:46:52;4.80;;;4.43;;
56319;SDS011;42226;42.382;23.748;2024-02-04T12:49:20;4.68;;;4.38;;
56319;SDS011;42226;42.382;23.748;2024-02-04T12:51:47;4.40;;;4.10;;
56319;SDS011;42226;42.382;23.748;2024-02-04T12:54:15;4.68;;;4.38;;
56319;SDS011;42226;42.382;23.748;2024-02-04T13:02:07;4.75;;;4.35;;
56319;SDS011;42226;42.382;23.748;2024-02-04T13:04:37;4.50;;;4.20;;
56319;SDS011;42226;42.382;23.748;2024-02-04T13:07:13;4.60;;;4.30;;
56319;SDS011;42226;42.382;23.748;2024-02-04T13:10:00;4.20;;;4.00;;
56319;SDS011;42226;42.382;23.748;2024-02-04T13:12:27;4.20;;;3.90;;
56319;SDS011;42226;42.382;23.748;2024-02-04T13:14:55;3.90;;;3.70;;
56319;SDS011;42226;42.382;23.748;2024-02-04T13:17:23;3.92;;;3.72;;
56319;SDS011;42226;42.382;23.748;2024-02-04T13:19:50;3.92;;;3.70;;
56319;SDS011;42226;42.382;23.748;2024-02-04T13:22:19;4.00;;;3.80;;
56319;SDS011;42226;42.382;23.748;2024-02-04T13:24:48;4.25;;;3.95;;
56319;SDS011;42226;42.382;23.748;2024-02-04T13:27:16;4.30;;;4.00;;
56319;SDS011;42226;42.382;23.748;2024-02-04T13:29:42;4.22;;;3.92;;
56319;SDS011;42226;42.382;23.748;2024-02-04T13:32:11;4.22;;;4.03;;
56319;SDS011;42226;42.382;23.748;2024-02-04T13:34:37;4.50;;;4.15;;
56319;SDS011;42226;42.382;23.748;2024-02-04T13:37:04;4.10;;;3.90;;
56319;SDS011;42226;42.382;23.748;2024-02-04T13:39:31;4.20;;;4.00;;
56319;SDS011;42226;42.382;23.748;2024-02-04T13:41:58;4.35;;;4.10;;
56319;SDS011;42226;42.382;23.748;2024-02-04T13:48:07;4.70;;;4.50;;
56319;SDS011;42226;42.382;23.748;2024-02-04T13:50:34;4.35;;;4.15;;
56319;SDS011;42226;42.382;23.748;2024-02-04T13:53:03;4.32;;;4.03;;
56319;SDS011;42226;42.382;23.748;2024-02-04T13:55:30;4.60;;;4.30;;
56319;SDS011;42226;42.382;23.748;2024-02-04T13:57:58;3.97;;;3.78;;
56319;SDS011;42226;42.382;23.748;2024-02-04T14:00:26;4.80;;;4.40;;
56319;SDS011;42226;42.382;23.748;2024-02-04T14:02:53;3.92;;;3.72;;
56319;SDS011;42226;42.382;23.748;2024-02-04T14:05:21;4.15;;;3.95;;
56319;SDS011;42226;42.382;23.748;2024-02-04T14:07:51;4.45;;;4.25;;
56319;SDS011;42226;42.382;23.748;2024-02-04T14:10:19;4.60;;;4.30;;
56319;SDS011;42226;42.382;23.748;2024-02-04T14:12:45;4.80;;;4.50;;
56319;SDS011;42226;42.382;23.748;2024-02-04T14:15:13;4.43;;;4.13;;
56319;SDS011;42226;42.382;23.748;2024-02-04T14:17:45;4.60;;;4.20;;
56319;SDS011;42226;42.382;23.748;2024-02-04T14:20:13;4.70;;;4.40;;
56319;SDS011;42226;42.382;23.748;2024-02-04T14:22:40;4.60;;;4.30;;
56319;SDS011;42226;42.382;23.748;2024-02-04T14:25:08;4.07;;;3.85;;
56319;SDS011;42226;42.382;23.748;2024-02-04T14:27:36;4.68;;;4.28;;
56319;SDS011;42226;42.382;23.748;2024-02-04T14:30:05;4.30;;;4.05;;
56319;SDS011;42226;42.382;23.748;2024-02-04T14:32:33;4.60;;;4.40;;
56319;SDS011;42226;42.382;23.748;2024-02-04T14:35:00;4.60;;;4.30;;
56319;SDS011;42226;42.382;23.748;2024-02-04T14:37:30;4.57;;;4.28;;
56319;SDS011;42226;42.382;23.748;2024-02-04T14:39:58;4.70;;;4.40;;
56319;SDS011;42226;42.382;23.748;2024-02-04T14:42:30;4.28;;;4.07;;
56319;SDS011;42226;42.382;23.748;2024-02-04T14:44:58;4.45;;;4.15;;
56319;SDS011;42226;42.382;23.748;2024-02-04T14:47:27;4.88;;;4.60;;
56319;SDS011;42226;42.382;23.748;2024-02-04T14:49:54;4.70;;;4.40;;
56319;SDS011;42226;42.382;23.748;2024-02-04T14:52:23;5.47;;;4.60;;
56319;SDS011;42226;42.382;23.748;2024-02-04T14:54:49;4.97;;;4.63;;
56319;SDS011;42226;42.382;23.748;2024-02-04T14:57:17;4.45;;;4.25;;
56319;SDS011;42226;42.382;23.748;2024-02-04T14:59:44;5.30;;;4.90;;
56319;SDS011;42226;42.382;23.748;2024-02-04T15:02:11;5.00;;;4.70;;
56319;SDS011;42226;42.382;23.748;2024-02-04T15:04:39;4.82;;;4.53;;
56319;SDS011;42226;42.382;23.748;2024-02-04T15:07:06;4.60;;;4.20;;
56319;SDS011;42226;42.382;23.748;2024-02-04T15:09:33;4.82;;;4.53;;
56319;SDS011;42226;42.382;23.748;2024-02-04T15:12:00;5.22;;;4.80;;
56319;SDS011;42226;42.382;23.748;2024-02-04T15:14:29;4.85;;;4.53;;
56319;SDS011;42226;42.382;23.748;2024-02-04T15:16:56;4.70;;;4.40;;
56319;SDS011;42226;42.382;23.748;2024-02-04T15:19:28;5.28;;;4.80;;
56319;SDS011;42226;42.382;23.748;2024-02-04T15:21:55;4.85;;;4.50;;
56319;SDS011;42226;42.382;23.748;2024-02-04T15:24:23;5.28;;;4.97;;
56319;SDS011;42226;42.382;23.748;2024-02-04T15:26:50;4.88;;;4.57;;
56319;SDS011;42226;42.382;23.748;2024-02-04T15:29:20;5.03;;;4.72;;
56319;SDS011;42226;42.382;23.748;2024-02-04T15:31:49;5.20;;;4.80;;
56319;SDS011;42226;42.382;23.748;2024-02-04T15:34:17;5.53;;;4.70;;
56319;SDS011;42226;42.382;23.748;2024-02-04T15:36:45;5.50;;;5.10;;
56319;SDS011;42226;42.382;23.748;2024-02-04T15:39:13;5.40;;;5.00;;
56319;SDS011;42226;42.382;23.748;2024-02-04T15:41:41;5.03;;;4.72;;
56319;SDS011;42226;42.382;23.748;2024-02-04T15:44:08;5.68;;;5.22;;
56319;SDS011;42226;42.382;23.748;2024-02-04T15:46:36;4.97;;;4.68;;
56319;SDS011;42226;42.382;23.748;2024-02-04T15:49:03;5.50;;;5.10;;